Time;durP1;ratioP1;P1;durP2;ratioP2;P2;SDS_P1;SDS_P2;PMS_P1;PMS_P2;Temp;Humidity;BMP_temperature;BMP_pressure;BME280_temperature;BME280_humidity;BME280_pressure;Samples;Min_cycle;Max_cycle;Signal;HPM_P1;HPM_P2
2021/09/04 00:00:45;;;;;;;19.63;17.63;;;16.30;1.00;;;;;;5050930;28;20188;-57
2021/09/04 00:03:11;;;;;;;22.53;19.60;;;16.30;1.00;;;;;;5046137;28;20208;-56
2021/09/04 00:05:36;;;;;;;18.77;17.03;;;16.30;1.00;;;;;;5050055;28;20575;-56
2021/09/04 00:08:02;;;;;;;19.63;17.83;;;16.30;1.00;;;;;;5051664;28;20286;-57
2021/09/04 00:10:28;;;;;;;20.73;18.23;;;16.20;1.00;;;;;;5051774;28;20259;-57
2021/09/04 00:12:53;;;;;;;20.70;18.50;;;16.20;1.00;;;;;;5050751;28;20177;-55
2021/09/04 00:15:19;;;;;;;20.53;18.43;;;16.20;1.00;;;;;;5052780;28;20188;-56
2021/09/04 00:17:45;;;;;;;20.17;18.13;;;16.30;1.00;;;;;;5051448;28;20578;-55
2021/09/04 00:20:11;;;;;;;18.70;16.90;;;16.20;1.00;;;;;;5051838;28;20447;-57
2021/09/04 00:22:37;;;;;;;18.93;16.97;;;16.20;1.00;;;;;;5048498;28;20278;-57
2021/09/04 00:25:03;;;;;;;23.33;19.10;;;16.20;1.00;;;;;;5051832;28;20531;-56
2021/09/04 00:27:29;;;;;;;19.43;17.50;;;16.10;1.00;;;;;;5059700;28;20636;-57
2021/09/04 00:29:55;;;;;;;20.03;17.07;;;16.00;1.00;;;;;;5052741;28;20542;-56
2021/09/04 00:32:20;;;;;;;18.40;16.57;;;16.10;1.00;;;;;;5050618;28;20181;-56
2021/09/04 00:34:46;;;;;;;19.20;17.30;;;16.00;1.00;;;;;;5042459;28;20225;-57
2021/09/04 00:37:12;;;;;;;19.33;17.20;;;16.00;1.00;;;;;;5046583;28;20204;-55
2021/09/04 00:39:37;;;;;;;20.63;18.07;;;16.00;1.00;;;;;;5049911;28;20734;-55
2021/09/04 00:42:03;;;;;;;20.87;17.33;;;16.00;1.00;;;;;;5051216;28;20180;-56
2021/09/04 00:44:29;;;;;;;18.13;16.33;;;16.00;1.00;;;;;;5050852;28;20246;-55
2021/09/04 00:47:02;;;;;;;20.07;17.03;;;16.00;1.00;;;;;;5051293;28;20443;-57
2021/09/04 00:49:28;;;;;;;20.50;16.83;;;15.90;1.00;;;;;;5050584;28;20191;-56
2021/09/04 00:51:54;;;;;;;18.13;16.30;;;15.90;1.00;;;;;;5050637;28;20418;-56
2021/09/04 00:54:19;;;;;;;19.50;16.87;;;15.90;1.00;;;;;;5059052;28;20208;-56
2021/09/04 00:56:45;;;;;;;18.90;16.97;;;15.80;1.00;;;;;;5049307;28;20234;-55
2021/09/04 00:59:11;;;;;;;18.67;16.57;;;15.80;1.00;;;;;;5050987;28;20185;-55
2021/09/04 01:01:37;;;;;;;19.83;17.73;;;15.70;1.00;;;;;;5050544;28;20186;-56
2021/09/04 01:04:03;;;;;;;19.27;17.23;;;15.80;1.00;;;;;;5050237;28;20212;-55
2021/09/04 01:06:28;;;;;;;19.53;17.47;;;15.70;1.00;;;;;;5049782;28;20181;-56
2021/09/04 01:08:54;;;;;;;19.47;16.87;;;15.60;1.00;;;;;;5050939;28;20624;-57
2021/09/04 01:11:21;;;;;;;18.90;17.00;;;15.70;1.00;;;;;;5045837;28;20190;-56
2021/09/04 01:13:47;;;;;;;19.40;17.40;;;15.60;1.00;;;;;;5048529;28;20462;-57
2021/09/04 01:16:12;;;;;;;19.93;17.80;;;15.60;1.00;;;;;;5039140;28;20443;-56
2021/09/04 01:18:38;;;;;;;22.40;17.30;;;;;;;;;;5050937;28;20604;-57
2021/09/04 01:21:06;;;;;;;20.20;17.30;;;15.70;1.00;;;;;;5048741;28;20715;-57
2021/09/04 01:23:32;;;;;;;20.47;18.40;;;15.60;1.00;;;;;;5050519;28;20442;-57
2021/09/04 01:26:05;;;;;;;20.83;18.63;;;15.50;1.00;;;;;;5050027;28;20925;-56
2021/09/04 01:28:32;;;;;;;18.17;16.43;;;15.50;1.00;;;;;;5050667;28;20459;-56
2021/09/04 01:30:58;;;;;;;18.90;17.10;;;15.40;1.00;;;;;;5050628;28;20469;-56
2021/09/04 01:33:23;;;;;;;21.00;17.87;;;15.40;1.00;;;;;;5045971;28;20417;-56
2021/09/04 01:35:49;;;;;;;18.97;17.10;;;15.40;1.00;;;;;;5049693;28;20516;-57
2021/09/04 01:38:14;;;;;;;18.90;17.07;;;15.40;1.00;;;;;;5050221;28;20634;-56
2021/09/04 01:40:40;;;;;;;21.80;18.30;;;15.40;1.00;;;;;;5050611;28;20246;-56
2021/09/04 01:43:06;;;;;;;19.30;17.30;;;15.40;1.00;;;;;;5048956;28;20196;-56
2021/09/04 01:45:31;;;;;;;18.97;16.57;;;15.30;1.00;;;;;;5050115;28;20224;-56
2021/09/04 01:47:57;;;;;;;19.33;17.40;;;15.30;1.00;;;;;;5049028;28;20214;-57
2021/09/04 01:50:22;;;;;;;18.03;16.10;;;15.30;1.00;;;;;;5047032;28;20550;-55
2021/09/04 01:52:48;;;;;;;18.17;16.37;;;15.30;1.00;;;;;;5049674;28;20181;-56
2021/09/04 01:55:17;;;;;;;19.07;17.27;;;15.30;1.00;;;;;;5049423;28;20535;-56
2021/09/04 01:57:43;;;;;;;19.47;17.30;;;15.20;1.00;;;;;;5050341;28;20646;-54
2021/09/04 02:00:12;;;;;;;16.20;14.57;;;15.30;1.00;;;;;;5048849;28;20446;-57
2021/09/04 02:02:38;;;;;;;19.40;17.40;;;15.30;1.00;;;;;;5050357;28;20239;-55
2021/09/04 02:05:05;;;;;;;19.57;17.57;;;15.20;1.00;;;;;;5049353;28;20440;-54
2021/09/04 02:07:30;;;;;;;18.23;15.90;;;15.20;1.00;;;;;;5049327;28;20508;-55
2021/09/04 02:09:56;;;;;;;20.73;16.00;;;15.10;1.00;;;;;;5049551;28;20998;-55
2021/09/04 02:12:22;;;;;;;19.20;16.50;;;15.20;1.00;;;;;;5049443;28;20181;-56
2021/09/04 02:14:47;;;;;;;18.00;16.17;;;15.10;1.00;;;;;;5045920;28;20177;-55
2021/09/04 02:17:13;;;;;;;18.73;16.73;;;15.10;1.00;;;;;;5049455;28;20653;-56
2021/09/04 02:19:39;;;;;;;18.10;16.20;;;15.00;1.00;;;;;;5049737;28;20188;-56
2021/09/04 02:22:04;;;;;;;18.07;16.20;;;15.10;1.00;;;;;;5047904;28;20208;-56
2021/09/04 02:24:30;;;;;;;17.53;15.63;;;15.00;1.00;;;;;;5049074;28;20535;-56
2021/09/04 02:26:57;;;;;;;19.43;15.27;;;15.00;1.00;;;;;;5048175;28;20242;-55
2021/09/04 02:29:22;;;;;;;16.50;14.90;;;15.00;1.00;;;;;;5048768;28;20208;-55
2021/09/04 02:31:48;;;;;;;17.57;14.77;;;15.00;1.00;;;;;;5049543;28;20955;-55
2021/09/04 02:34:14;;;;;;;16.20;14.70;;;15.00;1.00;;;;;;5049237;28;20196;-55
2021/09/04 02:36:39;;;;;;;17.47;15.77;;;14.90;1.00;;;;;;5048139;28;20585;-55
2021/09/04 02:39:05;;;;;;;19.00;17.00;;;14.90;1.00;;;;;;5048658;28;20761;-55
2021/09/04 02:41:30;;;;;;;17.10;15.40;;;14.90;1.00;;;;;;5050181;28;20435;-55
2021/09/04 02:43:56;;;;;;;15.67;14.03;;;14.90;1.00;;;;;;5047165;28;20267;-56
2021/09/04 02:46:21;;;;;;;15.70;13.93;;;14.90;1.00;;;;;;5049818;28;20186;-55
2021/09/04 02:48:47;;;;;;;16.30;14.70;;;14.90;1.00;;;;;;5049019;28;20311;-56
2021/09/04 02:51:12;;;;;;;17.30;15.60;;;14.80;1.00;;;;;;5046157;28;20453;-55
2021/09/04 02:53:38;;;;;;;17.83;13.83;;;14.80;1.00;;;;;;5049640;28;20187;-55
2021/09/04 02:56:04;;;;;;;17.60;15.40;;;14.80;1.00;;;;;;5048243;28;20218;-55
2021/09/04 02:58:29;;;;;;;16.03;14.53;;;14.80;1.00;;;;;;5049833;28;20185;-56
2021/09/04 03:00:55;;;;;;;15.77;13.83;;;14.80;1.00;;;;;;5044962;28;20586;-56
2021/09/04 03:03:20;;;;;;;16.70;13.30;;;14.80;1.00;;;;;;5048038;28;20530;-56
2021/09/04 03:05:46;;;;;;;15.77;14.17;;;14.70;1.00;;;;;;5049103;28;20177;-55
2021/09/04 03:08:12;;;;;;;15.90;14.27;;;14.70;1.00;;;;;;5048639;28;20208;-56
2021/09/04 03:10:37;;;;;;;15.70;13.37;;;14.70;1.00;;;;;;5049607;28;20185;-55
2021/09/04 03:13:03;;;;;;;16.40;14.63;;;14.70;1.00;;;;;;5049161;28;20193;-56
2021/09/04 03:15:29;;;;;;;15.87;14.37;;;14.60;1.00;;;;;;5045724;28;20221;-56
2021/09/04 03:17:54;;;;;;;16.03;14.53;;;14.60;1.00;;;;;;5056522;28;20267;-56
2021/09/04 03:20:20;;;;;;;16.27;14.33;;;14.60;1.00;;;;;;5054570;28;20192;-56
2021/09/04 03:22:45;;;;;;;14.73;13.33;;;14.60;1.00;;;;;;5058277;28;20185;-57
2021/09/04 03:25:12;;;;;;;14.67;13.07;;;14.50;1.00;;;;;;5048449;28;20454;-56
2021/09/04 03:27:38;;;;;;;14.00;12.60;;;14.60;1.00;;;;;;5052338;28;20196;-57
2021/09/04 03:30:04;;;;;;;14.53;13.13;;;14.50;1.00;;;;;;5052135;28;20454;-56
2021/09/04 03:32:29;;;;;;;16.00;14.40;;;14.40;1.00;;;;;;5049215;28;20747;-56
2021/09/04 03:34:55;;;;;;;14.30;12.90;;;14.50;1.00;;;;;;5051038;28;20450;-57
2021/09/04 03:37:21;;;;;;;15.10;13.70;;;14.40;1.00;;;;;;5051091;28;20181;-56
2021/09/04 03:39:47;;;;;;;14.63;13.10;;;14.40;1.00;;;;;;5051522;28;20247;-56
2021/09/04 03:42:13;;;;;;;14.60;13.20;;;14.40;1.00;;;;;;5053625;28;20806;-57
2021/09/04 03:44:38;;;;;;;14.47;13.10;;;14.30;1.00;;;;;;5052583;28;20184;-55
2021/09/04 03:47:04;;;;;;;14.33;12.83;;;14.30;1.00;;;;;;5052792;28;20208;-57
2021/09/04 03:49:30;;;;;;;14.17;12.87;;;14.30;1.00;;;;;;5052315;28;20586;-56
2021/09/04 03:51:55;;;;;;;15.37;13.30;;;14.30;1.00;;;;;;5048370;28;20231;-56
2021/09/04 03:54:21;;;;;;;16.47;13.47;;;14.30;1.00;;;;;;5051449;28;20661;-57
2021/09/04 03:56:46;;;;;;;14.57;13.07;;;14.40;1.00;;;;;;5057508;28;20263;-57
2021/09/04 03:59:12;;;;;;;13.93;12.60;;;14.30;1.00;;;;;;5050722;28;20193;-57
2021/09/04 04:01:38;;;;;;;14.90;13.40;;;14.30;1.00;;;;;;5052470;28;20189;-56
2021/09/04 04:04:03;;;;;;;14.03;12.83;;;14.20;1.00;;;;;;5056974;28;20199;-56
2021/09/04 04:06:29;;;;;;;14.50;13.03;;;14.30;1.00;;;;;;5049835;28;20192;-57
2021/09/04 04:08:55;;;;;;;13.90;12.50;;;14.40;1.00;;;;;;5051490;28;20258;-56
2021/09/04 04:11:22;;;;;;;14.87;13.33;;;14.30;1.00;;;;;;5051079;28;20193;-55
2021/09/04 04:13:47;;;;;;;14.60;13.10;;;14.30;1.00;;;;;;5047579;28;20487;-57
2021/09/04 04:16:13;;;;;;;14.40;13.00;;;14.30;1.00;;;;;;5049838;28;20426;-56
2021/09/04 04:18:39;;;;;;;13.60;12.30;;;14.20;1.00;;;;;;5051876;28;20705;-58
2021/09/04 04:21:04;;;;;;;14.83;12.83;;;14.20;1.00;;;;;;5047683;28;20188;-56
2021/09/04 04:23:30;;;;;;;13.93;12.63;;;14.10;1.00;;;;;;5051930;28;20197;-56
2021/09/04 04:25:56;;;;;;;15.37;13.50;;;14.20;1.00;;;;;;5048306;28;20447;-56
2021/09/04 04:28:21;;;;;;;14.73;13.23;;;14.10;1.00;;;;;;5055535;28;20204;-56
2021/09/04 04:30:47;;;;;;;13.80;12.37;;;14.10;1.00;;;;;;5050168;28;20263;-55
2021/09/04 04:33:13;;;;;;;14.20;12.70;;;14.00;1.00;;;;;;5050653;28;20277;-56
2021/09/04 04:35:39;;;;;;;13.43;11.60;;;14.00;1.00;;;;;;5051616;28;20220;-54
2021/09/04 04:38:04;;;;;;;13.70;11.67;;;14.00;1.00;;;;;;5053027;28;20958;-55
2021/09/04 04:40:30;;;;;;;12.80;11.50;;;14.00;1.00;;;;;;5051086;28;20713;-56
2021/09/04 04:42:56;;;;;;;16.10;13.10;;;14.00;1.00;;;;;;5051169;28;20277;-57
2021/09/04 04:45:21;;;;;;;13.30;12.00;;;14.10;1.00;;;;;;5051351;28;20204;-55
2021/09/04 04:47:47;;;;;;;14.70;13.20;;;14.10;1.00;;;;;;5051348;28;20208;-57
2021/09/04 04:50:15;;;;;;;14.53;13.10;;;14.10;1.00;;;;;;5049312;28;20180;-56
2021/09/04 04:52:40;;;;;;;15.53;14.00;;;14.20;1.00;;;;;;5049262;28;20220;-55
2021/09/04 04:55:06;;;;;;;14.47;13.00;;;14.20;1.00;;;;;;5050246;28;20919;-57
2021/09/04 04:57:32;;;;;;;15.50;14.00;;;14.30;1.00;;;;;;5049193;28;20523;-56
2021/09/04 04:59:57;;;;;;;14.67;13.17;;;14.20;1.00;;;;;;5047856;28;20198;-57
2021/09/04 05:02:23;;;;;;;15.67;14.07;;;14.30;1.00;;;;;;5050083;28;20527;-55
2021/09/04 05:04:48;;;;;;;13.93;12.53;;;14.40;1.00;;;;;;5050504;28;20609;-55
2021/09/04 05:07:14;;;;;;;14.60;12.90;;;14.50;1.00;;;;;;5047013;28;20272;-55
2021/09/04 05:09:39;;;;;;;13.57;11.90;;;14.60;1.00;;;;;;5048950;28;20180;-55
2021/09/04 05:12:05;;;;;;;13.53;12.17;;;14.60;1.00;;;;;;5050714;28;20184;-55
2021/09/04 05:14:31;;;;;;;14.70;13.20;;;14.60;1.00;;;;;;5050713;28;20177;-57
2021/09/04 05:16:57;;;;;;;14.23;12.50;;;14.60;1.00;;;;;;5049622;28;20443;-56
2021/09/04 05:19:22;;;;;;;14.83;13.20;;;14.70;1.00;;;;;;5050580;28;20196;-56
2021/09/04 05:21:48;;;;;;;14.80;13.37;;;14.80;1.00;;;;;;5047495;28;20228;-57
2021/09/04 05:24:14;;;;;;;14.27;11.97;;;14.80;1.00;;;;;;5046183;28;20192;-57
2021/09/04 05:26:40;;;;;;;16.27;14.13;;;14.90;1.00;;;;;;5052443;28;20209;-56
2021/09/04 05:29:05;;;;;;;14.03;12.50;;;14.90;1.00;;;;;;5049502;28;20291;-56
2021/09/04 05:31:31;;;;;;;13.17;11.97;;;14.90;1.00;;;;;;5047360;28;20214;-56
2021/09/04 05:33:57;;;;;;;15.77;14.13;;;15.00;1.00;;;;;;5050466;28;20273;-57
2021/09/04 05:36:22;;;;;;;15.20;12.63;;;15.10;1.00;;;;;;5049649;28;20356;-57
2021/09/04 05:38:48;;;;;;;14.80;12.70;;;15.10;1.00;;;;;;5061442;28;20473;-55
2021/09/04 05:41:13;;;;;;;13.00;11.80;;;15.30;1.00;;;;;;5056811;28;20192;-57
2021/09/04 05:43:39;;;;;;;12.97;11.67;;;15.40;1.00;;;;;;5049610;28;20230;-55
2021/09/04 05:46:05;;;;;;;12.20;11.00;;;15.40;1.00;;;;;;5050433;28;20704;-56
2021/09/04 05:48:30;;;;;;;12.53;11.43;;;15.50;1.00;;;;;;5050023;28;20208;-56
2021/09/04 05:50:56;;;;;;;13.33;12.03;;;15.60;1.00;;;;;;5049005;28;20334;-57
2021/09/04 05:53:22;;;;;;;14.03;12.67;;;15.60;1.00;;;;;;5049968;28;20185;-55
2021/09/04 05:55:47;;;;;;;12.53;11.43;;;15.70;1.00;;;;;;5047655;28;20180;-56
2021/09/04 05:58:14;;;;;;;12.37;11.17;;;15.80;1.00;;;;;;5065059;28;20196;-56
2021/09/04 06:00:39;;;;;;;12.30;11.20;;;15.80;1.00;;;;;;5055327;28;20193;-55
2021/09/04 06:03:05;;;;;;;12.53;11.43;;;15.80;1.00;;;;;;5048770;28;20438;-56
2021/09/04 06:05:31;;;;;;;12.17;11.07;;;15.80;1.00;;;;;;5050863;28;20185;-57
2021/09/04 06:07:57;;;;;;;11.90;10.80;;;15.80;1.00;;;;;;5049848;28;20303;-55
2021/09/04 06:10:23;;;;;;;12.53;11.27;;;15.70;1.00;;;;;;5050119;28;20887;-56
2021/09/04 06:12:49;;;;;;;11.67;10.57;;;15.80;1.00;;;;;;5049124;28;20249;-57
2021/09/04 06:15:14;;;;;;;11.30;10.20;;;15.80;1.00;;;;;;5045327;28;20654;-55
2021/09/04 06:17:40;;;;;;;11.00;10.00;;;15.90;1.00;;;;;;5045404;28;20455;-57
2021/09/04 06:20:07;;;;;;;12.00;10.87;;;15.90;1.00;;;;;;5047309;28;20246;-54
2021/09/04 06:22:33;;;;;;;12.43;11.13;;;15.90;1.00;;;;;;5049307;28;20204;-57
2021/09/04 06:24:58;;;;;;;12.10;10.90;;;15.90;1.00;;;;;;5049747;28;20506;-55
2021/09/04 06:27:24;;;;;;;12.00;10.90;;;15.90;1.00;;;;;;5049578;28;20182;-56
2021/09/04 06:29:49;;;;;;;11.67;10.47;;;15.80;1.00;;;;;;5049613;28;20315;-56
2021/09/04 06:32:15;;;;;;;12.23;11.03;;;15.80;1.00;;;;;;5049647;28;20185;-55
2021/09/04 06:34:41;;;;;;;13.33;10.00;;;16.00;1.00;;;;;;5049029;28;20558;-55
2021/09/04 06:37:07;;;;;;;11.40;10.40;;;15.90;1.00;;;;;;5049372;28;20192;-57
2021/09/04 06:39:32;;;;;;;11.63;10.43;;;16.00;1.00;;;;;;5047423;28;20184;-56
2021/09/04 06:41:58;;;;;;;12.10;11.00;;;15.90;1.00;;;;;;5049682;28;20949;-55
2021/09/04 06:44:24;;;;;;;12.50;11.30;;;16.00;1.00;;;;;;5049561;28;20216;-56
2021/09/04 06:46:50;;;;;;;12.60;11.40;;;16.10;1.00;;;;;;5049464;28;20181;-56
2021/09/04 06:49:15;;;;;;;13.53;12.10;;;16.30;1.00;;;;;;5049711;28;20522;-56
2021/09/04 06:51:41;;;;;;;13.57;12.27;;;16.40;1.00;;;;;;5049311;28;20647;-58
2021/09/04 06:54:07;;;;;;;13.03;11.83;;;16.40;1.00;;;;;;5049176;28;20595;-58
2021/09/04 06:56:32;;;;;;;11.70;10.70;;;16.50;1.00;;;;;;5064798;28;20188;-56
2021/09/04 06:58:58;;;;;;;13.13;11.83;;;16.60;1.00;;;;;;5052379;28;20190;-58
2021/09/04 07:01:23;;;;;;;11.40;10.20;;;16.70;1.00;;;;;;5050092;28;20185;-57
2021/09/04 07:03:49;;;;;;;13.73;12.47;;;16.90;1.00;;;;;;5061691;28;20181;-56
2021/09/04 07:06:14;;;;;;;12.53;11.33;;;17.00;1.00;;;;;;5054394;28;20697;-56
2021/09/04 07:08:40;;;;;;;11.07;10.03;;;17.40;1.00;;;;;;5053043;28;20216;-57
2021/09/04 07:11:06;;;;;;;13.07;11.97;;;17.60;1.00;;;;;;5052089;28;20194;-57
2021/09/04 07:13:31;;;;;;;12.63;11.43;;;17.80;1.00;;;;;;5052548;28;20194;-58
2021/09/04 07:15:57;;;;;;;12.37;11.23;;;17.80;1.00;;;;;;5052286;28;20198;-57
2021/09/04 07:18:23;;;;;;;13.33;11.43;;;17.80;1.00;;;;;;5052887;28;20194;-56
2021/09/04 07:20:50;;;;;;;12.17;11.07;;;17.90;1.00;;;;;;5052640;28;20197;-58
2021/09/04 07:23:15;;;;;;;13.07;11.70;;;18.10;1.00;;;;;;5052946;28;20433;-58
2021/09/04 07:25:41;;;;;;;13.03;11.73;;;18.20;1.00;;;;;;5052700;28;20510;-56
2021/09/04 07:28:07;;;;;;;12.83;11.63;;;18.30;1.00;;;;;;5052492;28;20218;-59
2021/09/04 07:30:34;;;;;;;13.77;12.33;;;18.10;1.00;;;;;;5053056;28;20513;-57
2021/09/04 07:32:59;;;;;;;13.50;12.30;;;18.30;1.00;;;;;;5069051;28;20261;-58
2021/09/04 07:35:25;;;;;;;14.00;12.50;;;18.40;1.00;;;;;;5059276;28;20502;-58
2021/09/04 07:37:51;;;;;;;14.03;12.60;;;18.60;1.00;;;;;;5059245;28;20214;-57
2021/09/04 07:40:16;;;;;;;14.47;12.93;;;18.80;1.00;;;;;;5052223;28;20199;-58
2021/09/04 07:42:42;;;;;;;12.90;11.70;;;18.90;1.00;;;;;;5052371;28;20253;-56
2021/09/04 07:45:08;;;;;;;13.37;12.00;;;19.20;1.00;;;;;;5052627;28;20531;-58
2021/09/04 07:47:34;;;;;;;15.33;13.90;;;19.40;1.00;;;;;;5063260;28;20586;-58
2021/09/04 07:49:59;;;;;;;16.57;14.90;;;19.60;1.00;;;;;;5057830;28;20466;-56
2021/09/04 07:52:25;;;;;;;16.13;14.27;;;19.70;1.00;;;;;;5055261;28;20174;-57
2021/09/04 07:54:50;;;;;;;18.73;16.90;;;19.60;1.00;;;;;;5051768;28;20208;-57
2021/09/04 07:57:16;;;;;;;20.63;15.33;;;19.70;1.00;;;;;;5051914;28;20652;-58
2021/09/04 07:59:41;;;;;;;16.93;15.23;;;19.80;1.00;;;;;;5054554;28;20179;-56
2021/09/04 08:02:07;;;;;;;17.43;15.63;;;19.80;1.00;;;;;;5058856;28;20199;-57
2021/09/04 08:04:32;;;;;;;21.20;16.03;;;19.80;1.00;;;;;;5056614;28;20180;-57
2021/09/04 08:06:58;;;;;;;22.80;16.83;;;20.00;1.00;;;;;;5054486;28;20219;-58
2021/09/04 08:09:24;;;;;;;19.90;16.30;;;20.20;1.00;;;;;;5051464;28;20221;-56
2021/09/04 08:11:49;;;;;;;19.40;17.40;;;20.20;1.00;;;;;;5057996;28;20225;-57
2021/09/04 08:14:15;;;;;;;18.70;16.80;;;20.30;1.00;;;;;;5051425;28;20192;-57
2021/09/04 08:16:40;;;;;;;19.97;16.93;;;20.20;1.00;;;;;;5051778;28;20274;-58
2021/09/04 08:19:06;;;;;;;18.70;16.77;;;20.40;1.00;;;;;;5050169;28;20665;-56
2021/09/04 08:21:31;;;;;;;19.30;17.33;;;20.20;1.00;;;;;;5052746;28;20209;-55
2021/09/04 08:23:57;;;;;;;20.43;18.30;;;20.10;1.00;;;;;;5051986;28;20251;-57
2021/09/04 08:26:22;;;;;;;19.30;17.43;;;20.20;1.00;;;;;;5051090;28;20253;-57
2021/09/04 08:28:48;;;;;;;19.53;16.70;;;20.40;1.00;;;;;;5051755;28;20553;-56
2021/09/04 08:31:14;;;;;;;17.47;15.57;;;20.20;1.00;;;;;;5051649;28;20213;-57
2021/09/04 08:33:39;;;;;;;18.17;16.37;;;20.30;1.00;;;;;;5069250;28;20206;-57
2021/09/04 08:36:05;;;;;;;18.33;16.10;;;20.70;1.00;;;;;;5057422;28;20434;-58
2021/09/04 08:38:30;;;;;;;20.23;17.83;;;20.70;1.00;;;;;;5054821;28;20236;-56
2021/09/04 08:40:56;;;;;;;18.67;16.70;;;20.80;1.00;;;;;;5051740;28;20190;-57
2021/09/04 08:43:22;;;;;;;20.07;16.40;;;21.10;1.00;;;;;;5065519;28;20186;-56
2021/09/04 08:45:48;;;;;;;18.80;16.80;;;20.90;1.00;;;;;;5060220;28;20723;-56
2021/09/04 08:48:14;;;;;;;19.53;17.30;;;20.80;1.00;;;;;;5059131;28;20447;-59
2021/09/04 08:50:40;;;;;;;19.83;16.93;;;20.90;1.00;;;;;;5051243;28;20173;-57
2021/09/04 08:53:05;;;;;;;19.83;16.40;;;21.30;1.00;;;;;;5051825;28;20449;-58
2021/09/04 08:55:31;;;;;;;28.00;16.90;;;21.40;1.00;;;;;;5051302;28;20903;-57
2021/09/04 08:57:57;;;;;;;19.33;16.80;;;21.50;1.00;;;;;;5051007;28;20180;-57
2021/09/04 09:00:31;;;;;;;19.60;17.70;;;21.40;1.00;;;;;;5059400;28;20617;-56
2021/09/04 09:02:58;;;;;;;21.00;16.80;;;21.40;1.00;;;;;;5050614;28;20428;-56
2021/09/04 09:05:24;;;;;;;19.77;15.93;;;21.40;1.00;;;;;;5051097;28;20413;-57
2021/09/04 09:07:49;;;;;;;18.93;16.13;;;21.80;1.00;;;;;;5050504;28;20530;-56
2021/09/04 09:10:21;;;;;;;19.90;16.67;;;21.80;1.00;;;;;;5051576;28;20621;-57
2021/09/04 09:12:47;;;;;;;18.97;16.40;;;21.90;1.00;;;;;;5051400;28;20239;-56
2021/09/04 09:15:20;;;;;;;19.73;17.63;;;21.70;1.00;;;;;;5049571;28;20406;-58
2021/09/04 09:18:07;;;;;;;21.17;17.50;;;21.40;1.00;;;;;;5052872;28;20503;-58
2021/09/04 09:20:34;;;;;;;20.13;16.90;;;21.50;1.00;;;;;;5069651;28;20442;-58
2021/09/04 09:23:10;;;;;;;20.17;17.47;;;21.50;1.00;;;;;;5065658;28;20445;-56
2021/09/04 09:25:37;;;;;;;20.80;18.60;;;21.50;1.00;;;;;;5050799;28;20408;-57
2021/09/04 09:28:05;;;;;;;21.30;19.10;;;22.00;1.00;;;;;;5050838;28;20433;-57
2021/09/04 09:30:31;;;;;;;21.37;19.17;;;22.10;1.00;;;;;;5051303;28;20482;-56
2021/09/04 09:32:56;;;;;;;21.03;18.30;;;22.10;1.00;;;;;;5048709;28;20422;-57
2021/09/04 09:35:36;;;;;;;23.53;18.77;;;22.00;1.00;;;;;;5047552;28;20830;-56
2021/09/04 09:38:04;;;;;;;22.40;18.83;;;22.20;1.00;;;;;;5049686;28;20292;-57
2021/09/04 09:40:30;;;;;;;22.23;18.67;;;22.40;1.00;;;;;;5053067;28;20456;-57
2021/09/04 09:42:56;;;;;;;22.50;18.67;;;22.40;1.00;;;;;;5050427;28;20442;-56
2021/09/04 09:45:42;;;;;;;22.10;19.20;;;22.30;1.00;;;;;;5050766;28;20505;-58
2021/09/04 09:48:08;;;;;;;25.53;21.53;;;22.50;1.00;;;;;;5050375;28;20487;-56
2021/09/04 09:50:35;;;;;;;23.57;19.53;;;22.60;1.00;;;;;;5049272;28;20483;-55
2021/09/04 09:53:01;;;;;;;23.60;21.10;;;22.40;1.00;;;;;;5050195;28;20537;-57
2021/09/04 09:55:28;;;;;;;25.23;22.40;;;22.40;1.00;;;;;;5050601;28;20410;-56
2021/09/04 09:57:56;;;;;;;27.23;22.03;;;22.40;1.00;;;;;;5050501;28;20814;-58
2021/09/04 10:00:22;;;;;;;27.83;23.43;;;22.10;1.00;;;;;;5048740;28;20625;-58
2021/09/04 10:02:50;;;;;;;28.50;22.73;;;22.10;1.00;;;;;;5050440;28;20820;-58
2021/09/04 10:05:19;;;;;;;25.20;22.10;;;22.20;1.00;;;;;;5050277;28;20434;-57
2021/09/04 10:07:47;;;;;;;25.60;22.53;;;22.20;1.00;;;;;;5050178;28;20508;-56
2021/09/04 10:10:12;;;;;;;25.67;22.47;;;22.10;1.00;;;;;;5049963;28;20417;-56
2021/09/04 10:12:38;;;;;;;26.40;23.57;;;22.10;1.00;;;;;;5050441;28;20488;-57
2021/09/04 10:15:05;;;;;;;29.70;24.90;;;22.10;1.00;;;;;;5050265;28;20193;-57
2021/09/04 10:17:31;;;;;;;27.37;24.50;;;22.30;1.00;;;;;;5053737;28;20716;-57
2021/09/04 10:19:57;;;;;;;33.83;25.67;;;22.20;1.00;;;;;;5053030;28;20419;-57
2021/09/04 10:22:22;;;;;;;27.97;23.60;;;22.30;1.00;;;;;;5049594;28;20439;-57
2021/09/04 10:24:53;;;;;;;29.90;25.57;;;22.30;1.00;;;;;;5048779;28;20275;-58
2021/09/04 10:27:37;;;;;;;31.60;25.83;;;21.90;1.00;;;;;;5048517;28;20641;-57
2021/09/04 10:30:21;;;;;;;28.57;25.40;;;21.90;1.00;;;;;;5056877;28;20571;-59
2021/09/04 10:33:04;;;;;;;32.23;25.80;;;21.80;1.00;;;;;;5068833;28;20408;-56
2021/09/04 10:35:44;;;;;;;30.07;26.23;;;21.80;1.00;;;;;;5068483;28;20433;-57
2021/09/04 10:38:19;;;;;;;29.73;25.77;;;21.80;1.00;;;;;;5072593;28;20433;-56
2021/09/04 10:41:16;;;;;;;28.23;23.27;;;21.80;1.00;;;;;;5074308;28;20404;-56
2021/09/04 10:43:44;;;;;;;27.20;23.93;;;22.10;1.00;;;;;;5046663;28;20958;-56
2021/09/04 10:46:11;;;;;;;26.30;23.50;;;22.50;1.00;;;;;;5053738;28;20399;-57
2021/09/04 10:48:37;;;;;;;27.93;24.93;;;22.90;1.00;;;;;;5054127;28;20458;-57
2021/09/04 10:51:11;;;;;;;28.40;23.07;;;23.00;1.00;;;;;;5053676;28;20967;-57
2021/09/04 10:53:43;;;;;;;30.37;23.73;;;22.80;1.00;;;;;;5053429;28;20332;-57
2021/09/04 10:56:28;;;;;;;30.80;24.10;;;22.80;1.00;;;;;;5053854;28;20457;-56
2021/09/04 10:58:54;;;;;;;25.13;22.23;;;23.10;1.00;;;;;;5053955;28;20414;-57
2021/09/04 11:01:28;;;;;;;25.07;21.67;;;23.00;1.00;;;;;;5053782;28;20417;-57
2021/09/04 11:03:55;;;;;;;27.27;23.40;;;23.00;1.00;;;;;;5053776;28;20249;-56
2021/09/04 11:06:25;;;;;;;31.03;23.50;;;23.00;1.00;;;;;;5053231;28;20526;-58
2021/09/04 11:08:54;;;;;;;25.83;23.03;;;22.90;1.00;;;;;;5052934;28;20980;-57
2021/09/04 11:11:36;;;;;;;30.63;23.67;;;23.10;1.00;;;;;;5051590;28;20444;-57
2021/09/04 11:14:19;;;;;;;24.00;21.33;;;23.20;1.00;;;;;;5049050;28;20446;-57
2021/09/04 11:16:47;;;;;;;25.87;21.70;;;23.10;1.00;;;;;;5053197;28;20834;-55
2021/09/04 11:19:32;;;;;;;26.27;21.70;;;23.20;1.00;;;;;;5052829;28;21056;-57
2021/09/04 11:22:11;;;;;;;26.87;23.03;;;23.30;1.00;;;;;;5053476;28;20466;-56
2021/09/04 11:24:44;;;;;;;25.13;22.17;;;23.50;1.00;;;;;;5052958;28;20492;-58
2021/09/04 11:27:12;;;;;;;27.70;22.53;;;23.40;1.00;;;;;;5053136;28;20447;-57
2021/09/04 11:29:52;;;;;;;32.07;26.70;;;23.40;1.00;;;;;;5051626;28;20470;-58
2021/09/04 11:32:19;;;;;;;31.20;25.70;;;23.30;1.00;;;;;;5059190;28;20405;-58
2021/09/04 11:34:46;;;;;;;33.33;26.23;;;23.10;1.00;;;;;;5072929;28;20938;-56
2021/09/04 11:37:30;;;;;;;35.03;25.07;;;22.80;1.00;;;;;;5073472;28;20445;-57
2021/09/04 11:40:03;;;;;;;28.30;22.87;;;22.80;1.00;;;;;;5072882;28;20440;-56
2021/09/04 11:42:32;;;;;;;28.40;25.37;;;22.70;1.00;;;;;;5072843;28;20438;-58
2021/09/04 11:45:09;;;;;;;26.40;23.40;;;23.00;1.00;;;;;;5072627;28;20438;-57
2021/09/04 11:47:37;;;;;;;28.63;24.10;;;22.80;1.00;;;;;;5072559;28;20504;-57
2021/09/04 11:50:08;;;;;;;28.00;23.07;;;22.70;1.00;;;;;;5054805;28;20417;-56
2021/09/04 11:52:39;;;;;;;28.90;23.67;;;22.40;1.00;;;;;;5052446;28;20407;-56
2021/09/04 11:55:17;;;;;;;27.10;23.20;;;22.10;1.00;;;;;;5052627;28;20413;-56
2021/09/04 11:57:48;;;;;;;33.80;24.27;;;21.90;1.00;;;;;;5052590;28;20928;-58
2021/09/04 12:00:20;;;;;;;29.20;21.93;;;22.00;1.00;;;;;;5052689;28;20413;-58
2021/09/04 12:02:57;;;;;;;30.90;21.53;;;22.20;1.00;;;;;;5070614;28;20425;-58
2021/09/04 12:05:28;;;;;;;26.63;21.13;;;22.40;1.00;;;;;;5072476;28;20537;-56
2021/09/04 12:07:55;;;;;;;27.07;22.73;;;22.40;1.00;;;;;;5071960;28;20454;-56
2021/09/04 12:10:29;;;;;;;27.80;20.30;;;22.30;1.00;;;;;;5072229;28;20424;-57
2021/09/04 12:12:57;;;;;;;27.37;21.50;;;22.20;1.00;;;;;;5072084;28;20892;-57
2021/09/04 12:15:24;;;;;;;28.10;20.30;;;21.90;1.00;;;;;;5072429;28;20901;-57
2021/09/04 12:17:51;;;;;;;24.03;19.83;;;21.80;1.00;;;;;;5054246;28;20401;-58
2021/09/04 12:20:18;;;;;;;29.17;20.03;;;21.70;1.00;;;;;;5051755;28;20413;-56
2021/09/04 12:22:44;;;;;;;25.23;19.60;;;21.80;1.00;;;;;;5050798;28;20582;-57
2021/09/04 12:25:31;;;;;;;25.47;20.73;;;22.00;1.00;;;;;;5062636;28;20499;-57
2021/09/04 12:28:03;;;;;;;22.73;18.23;;;22.00;1.00;;;;;;5050491;28;20209;-57
2021/09/04 12:30:29;;;;;;;27.63;18.87;;;21.90;1.00;;;;;;5052195;28;20416;-57
2021/09/04 12:33:10;;;;;;;26.43;20.43;;;21.90;1.00;;;;;;5053359;28;20411;-58
2021/09/04 12:35:52;;;;;;;21.67;18.20;;;21.70;1.00;;;;;;5052044;28;20219;-60
2021/09/04 12:38:20;;;;;;;21.73;18.73;;;21.70;1.00;;;;;;5051035;28;20805;-58